sensor_id;sensor_type;location;lat;lon;timestamp;P1;durP1;ratioP1;P2;durP2;ratioP2
74799;SDS011;63326;45.088;7.658;2024-01-25T00:00:53;33.78;;;13.73;;
74799;SDS011;63326;45.088;7.658;2024-01-25T00:03:20;24.23;;;12.40;;
74799;SDS011;63326;45.088;7.658;2024-01-25T00:05:48;16.38;;;12.18;;
74799;SDS011;63326;45.088;7.658;2024-01-25T00:08:16;24.85;;;12.15;;
74799;SDS011;63326;45.088;7.658;2024-01-25T00:10:43;23.75;;;14.70;;
74799;SDS011;63326;45.088;7.658;2024-01-25T00:13:11;26.13;;;15.00;;
74799;SDS011;63326;45.088;7.658;2024-01-25T00:15:40;30.35;;;15.68;;
74799;SDS011;63326;45.088;7.658;2024-01-25T00:18:08;21.85;;;11.82;;
74799;SDS011;63326;45.088;7.658;2024-01-25T00:20:35;30.20;;;13.57;;
74799;SDS011;63326;45.088;7.658;2024-01-25T00:23:05;20.85;;;13.63;;
74799;SDS011;63326;45.088;7.658;2024-01-25T00:25:37;18.50;;;10.80;;
74799;SDS011;63326;45.088;7.658;2024-01-25T00:28:05;18.75;;;12.93;;
74799;SDS011;63326;45.088;7.658;2024-01-25T00:33:06;19.80;;;10.75;;
74799;SDS011;63326;45.088;7.658;2024-01-25T00:36:11;25.80;;;11.50;;
74799;SDS011;63326;45.088;7.658;2024-01-25T00:39:09;26.60;;;11.80;;
74799;SDS011;63326;45.088;7.658;2024-01-25T00:41:54;15.13;;;11.15;;
74799;SDS011;63326;45.088;7.658;2024-01-25T00:44:35;28.45;;;12.60;;
74799;SDS011;63326;45.088;7.658;2024-01-25T00:47:21;17.75;;;10.00;;
74799;SDS011;63326;45.088;7.658;2024-01-25T00:53:31;18.27;;;12.18;;
74799;SDS011;63326;45.088;7.658;2024-01-25T00:55:59;21.08;;;11.73;;
74799;SDS011;63326;45.088;7.658;2024-01-25T00:58:26;28.10;;;13.05;;
74799;SDS011;63326;45.088;7.658;2024-01-25T01:01:07;19.10;;;9.77;;
74799;SDS011;63326;45.088;7.658;2024-01-25T01:03:39;25.67;;;10.70;;
74799;SDS011;63326;45.088;7.658;2024-01-25T01:06:17;26.65;;;11.27;;
74799;SDS011;63326;45.088;7.658;2024-01-25T01:08:58;17.92;;;9.88;;
74799;SDS011;63326;45.088;7.658;2024-01-25T01:14:35;16.10;;;8.05;;
74799;SDS011;63326;45.088;7.658;2024-01-25T01:17:11;19.85;;;12.10;;
74799;SDS011;63326;45.088;7.658;2024-01-25T01:20:01;20.08;;;11.35;;
74799;SDS011;63326;45.088;7.658;2024-01-25T01:22:37;28.27;;;13.60;;
74799;SDS011;63326;45.088;7.658;2024-01-25T01:25:38;24.30;;;11.13;;
74799;SDS011;63326;45.088;7.658;2024-01-25T01:28:07;22.48;;;14.63;;
74799;SDS011;63326;45.088;7.658;2024-01-25T01:31:19;22.40;;;11.05;;
74799;SDS011;63326;45.088;7.658;2024-01-25T01:33:46;13.85;;;10.10;;
74799;SDS011;63326;45.088;7.658;2024-01-25T01:36:22;24.15;;;11.27;;
74799;SDS011;63326;45.088;7.658;2024-01-25T01:39:43;19.40;;;10.25;;
74799;SDS011;63326;45.088;7.658;2024-01-25T01:42:46;19.05;;;10.18;;
74799;SDS011;63326;45.088;7.658;2024-01-25T01:49:42;21.63;;;12.15;;
74799;SDS011;63326;45.088;7.658;2024-01-25T01:52:10;20.05;;;11.45;;
74799;SDS011;63326;45.088;7.658;2024-01-25T01:54:40;19.67;;;13.80;;
74799;SDS011;63326;45.088;7.658;2024-01-25T01:57:11;25.02;;;11.65;;
74799;SDS011;63326;45.088;7.658;2024-01-25T01:59:41;18.23;;;10.32;;
74799;SDS011;63326;45.088;7.658;2024-01-25T02:02:11;21.90;;;11.85;;
74799;SDS011;63326;45.088;7.658;2024-01-25T02:04:38;21.05;;;13.25;;
74799;SDS011;63326;45.088;7.658;2024-01-25T02:07:05;17.23;;;11.15;;
74799;SDS011;63326;45.088;7.658;2024-01-25T02:09:32;18.83;;;10.60;;
74799;SDS011;63326;45.088;7.658;2024-01-25T02:12:00;25.98;;;14.18;;
74799;SDS011;63326;45.088;7.658;2024-01-25T02:14:28;20.60;;;10.35;;
74799;SDS011;63326;45.088;7.658;2024-01-25T02:16:55;27.33;;;12.25;;
74799;SDS011;63326;45.088;7.658;2024-01-25T02:19:22;22.95;;;11.55;;
74799;SDS011;63326;45.088;7.658;2024-01-25T02:21:49;22.70;;;11.68;;
74799;SDS011;63326;45.088;7.658;2024-01-25T02:24:20;17.52;;;9.15;;
74799;SDS011;63326;45.088;7.658;2024-01-25T02:26:47;22.52;;;13.43;;
74799;SDS011;63326;45.088;7.658;2024-01-25T02:29:14;23.63;;;13.13;;
74799;SDS011;63326;45.088;7.658;2024-01-25T02:31:41;32.42;;;15.55;;
74799;SDS011;63326;45.088;7.658;2024-01-25T02:34:07;28.10;;;14.27;;
74799;SDS011;63326;45.088;7.658;2024-01-25T02:36:34;18.35;;;9.85;;
74799;SDS011;63326;45.088;7.658;2024-01-25T02:39:01;26.95;;;12.40;;
74799;SDS011;63326;45.088;7.658;2024-01-25T02:41:29;20.08;;;10.82;;
74799;SDS011;63326;45.088;7.658;2024-01-25T02:43:56;17.50;;;11.00;;
74799;SDS011;63326;45.088;7.658;2024-01-25T02:46:23;21.98;;;12.43;;
74799;SDS011;63326;45.088;7.658;2024-01-25T02:48:50;18.02;;;13.10;;
74799;SDS011;63326;45.088;7.658;2024-01-25T02:51:17;22.17;;;11.18;;
74799;SDS011;63326;45.088;7.658;2024-01-25T02:53:44;19.20;;;9.98;;
74799;SDS011;63326;45.088;7.658;2024-01-25T02:56:11;20.45;;;9.98;;
74799;SDS011;63326;45.088;7.658;2024-01-25T02:58:38;17.60;;;10.20;;
74799;SDS011;63326;45.088;7.658;2024-01-25T03:01:05;24.33;;;15.45;;
74799;SDS011;63326;45.088;7.658;2024-01-25T03:03:31;21.00;;;13.20;;
74799;SDS011;63326;45.088;7.658;2024-01-25T03:05:58;22.73;;;11.15;;
74799;SDS011;63326;45.088;7.658;2024-01-25T03:08:29;18.33;;;10.85;;
74799;SDS011;63326;45.088;7.658;2024-01-25T03:10:56;21.17;;;12.98;;
74799;SDS011;63326;45.088;7.658;2024-01-25T03:13:23;22.58;;;12.23;;
74799;SDS011;63326;45.088;7.658;2024-01-25T03:15:49;23.08;;;12.27;;
74799;SDS011;63326;45.088;7.658;2024-01-25T03:18:17;14.88;;;7.80;;
74799;SDS011;63326;45.088;7.658;2024-01-25T03:20:44;19.23;;;9.80;;
74799;SDS011;63326;45.088;7.658;2024-01-25T03:23:11;16.95;;;10.88;;
74799;SDS011;63326;45.088;7.658;2024-01-25T03:25:37;27.25;;;10.65;;
74799;SDS011;63326;45.088;7.658;2024-01-25T03:28:04;19.33;;;10.77;;
74799;SDS011;63326;45.088;7.658;2024-01-25T03:30:36;22.42;;;11.30;;
74799;SDS011;63326;45.088;7.658;2024-01-25T03:33:03;22.67;;;13.65;;
74799;SDS011;63326;45.088;7.658;2024-01-25T03:35:29;22.92;;;13.70;;
74799;SDS011;63326;45.088;7.658;2024-01-25T03:37:56;24.48;;;17.13;;
74799;SDS011;63326;45.088;7.658;2024-01-25T03:40:27;22.10;;;12.10;;
74799;SDS011;63326;45.088;7.658;2024-01-25T03:43:03;24.75;;;11.43;;
74799;SDS011;63326;45.088;7.658;2024-01-25T03:45:46;21.25;;;10.57;;
74799;SDS011;63326;45.088;7.658;2024-01-25T03:48:19;19.02;;;10.73;;
74799;SDS011;63326;45.088;7.658;2024-01-25T03:50:46;23.80;;;12.10;;
74799;SDS011;63326;45.088;7.658;2024-01-25T03:53:13;16.02;;;9.95;;
74799;SDS011;63326;45.088;7.658;2024-01-25T03:55:44;27.00;;;14.00;;
74799;SDS011;63326;45.088;7.658;2024-01-25T03:58:20;21.75;;;12.23;;
74799;SDS011;63326;45.088;7.658;2024-01-25T04:00:47;11.20;;;8.00;;
74799;SDS011;63326;45.088;7.658;2024-01-25T04:03:16;21.60;;;11.60;;
74799;SDS011;63326;45.088;7.658;2024-01-25T04:05:47;21.20;;;12.30;;
74799;SDS011;63326;45.088;7.658;2024-01-25T04:08:20;17.67;;;10.13;;
74799;SDS011;63326;45.088;7.658;2024-01-25T04:10:52;26.85;;;13.98;;
74799;SDS011;63326;45.088;7.658;2024-01-25T04:13:23;18.55;;;11.10;;
74799;SDS011;63326;45.088;7.658;2024-01-25T04:15:51;23.45;;;9.98;;
74799;SDS011;63326;45.088;7.658;2024-01-25T04:18:20;17.55;;;8.55;;
74799;SDS011;63326;45.088;7.658;2024-01-25T04:20:50;23.83;;;11.23;;
74799;SDS011;63326;45.088;7.658;2024-01-25T04:23:18;20.98;;;11.50;;
74799;SDS011;63326;45.088;7.658;2024-01-25T04:25:50;23.25;;;12.20;;
74799;SDS011;63326;45.088;7.658;2024-01-25T04:28:20;16.80;;;10.50;;
74799;SDS011;63326;45.088;7.658;2024-01-25T04:30:59;23.40;;;10.88;;
74799;SDS011;63326;45.088;7.658;2024-01-25T04:33:29;20.23;;;12.85;;
74799;SDS011;63326;45.088;7.658;2024-01-25T04:36:00;18.75;;;9.48;;
74799;SDS011;63326;45.088;7.658;2024-01-25T04:38:27;14.73;;;10.40;;
74799;SDS011;63326;45.088;7.658;2024-01-25T04:41:05;18.38;;;11.80;;
74799;SDS011;63326;45.088;7.658;2024-01-25T04:43:46;19.02;;;10.05;;
74799;SDS011;63326;45.088;7.658;2024-01-25T04:46:15;20.90;;;10.68;;
74799;SDS011;63326;45.088;7.658;2024-01-25T04:48:47;17.90;;;8.88;;
74799;SDS011;63326;45.088;7.658;2024-01-25T04:51:20;22.73;;;9.85;;
74799;SDS011;63326;45.088;7.658;2024-01-25T04:53:50;13.35;;;8.90;;
74799;SDS011;63326;45.088;7.658;2024-01-25T04:56:33;16.25;;;9.73;;
74799;SDS011;63326;45.088;7.658;2024-01-25T04:59:00;15.32;;;8.00;;
74799;SDS011;63326;45.088;7.658;2024-01-25T05:01:27;12.30;;;7.85;;
74799;SDS011;63326;45.088;7.658;2024-01-25T05:03:54;16.02;;;7.72;;
74799;SDS011;63326;45.088;7.658;2024-01-25T05:06:21;14.38;;;7.25;;
74799;SDS011;63326;45.088;7.658;2024-01-25T05:08:48;11.60;;;6.75;;
74799;SDS011;63326;45.088;7.658;2024-01-25T05:11:17;13.85;;;7.22;;
74799;SDS011;63326;45.088;7.658;2024-01-25T05:13:44;15.80;;;7.55;;
74799;SDS011;63326;45.088;7.658;2024-01-25T05:16:12;13.77;;;8.82;;
74799;SDS011;63326;45.088;7.658;2024-01-25T05:18:47;13.73;;;9.95;;
74799;SDS011;63326;45.088;7.658;2024-01-25T05:21:17;14.52;;;8.35;;
74799;SDS011;63326;45.088;7.658;2024-01-25T05:24:19;15.02;;;9.88;;
74799;SDS011;63326;45.088;7.658;2024-01-25T05:27:01;10.60;;;7.45;;
74799;SDS011;63326;45.088;7.658;2024-01-25T05:29:30;19.88;;;9.50;;
74799;SDS011;63326;45.088;7.658;2024-01-25T05:31:57;14.93;;;9.25;;
74799;SDS011;63326;45.088;7.658;2024-01-25T05:34:24;15.32;;;9.80;;
74799;SDS011;63326;45.088;7.658;2024-01-25T05:36:51;14.70;;;10.73;;
74799;SDS011;63326;45.088;7.658;2024-01-25T05:39:18;22.88;;;11.98;;
74799;SDS011;63326;45.088;7.658;2024-01-25T05:41:45;13.25;;;10.38;;
74799;SDS011;63326;45.088;7.658;2024-01-25T05:44:12;15.45;;;8.68;;
74799;SDS011;63326;45.088;7.658;2024-01-25T05:46:39;25.02;;;10.27;;
74799;SDS011;63326;45.088;7.658;2024-01-25T05:49:06;21.00;;;9.20;;
74799;SDS011;63326;45.088;7.658;2024-01-25T05:51:34;20.70;;;10.50;;
74799;SDS011;63326;45.088;7.658;2024-01-25T05:54:02;18.92;;;8.90;;
74799;SDS011;63326;45.088;7.658;2024-01-25T05:56:29;23.05;;;9.80;;
74799;SDS011;63326;45.088;7.658;2024-01-25T05:58:56;16.02;;;9.77;;
74799;SDS011;63326;45.088;7.658;2024-01-25T06:01:23;17.58;;;8.05;;
74799;SDS011;63326;45.088;7.658;2024-01-25T06:03:49;24.80;;;12.70;;
74799;SDS011;63326;45.088;7.658;2024-01-25T06:06:17;19.05;;;11.38;;
74799;SDS011;63326;45.088;7.658;2024-01-25T06:08:44;18.25;;;10.10;;
74799;SDS011;63326;45.088;7.658;2024-01-25T06:11:20;21.50;;;8.73;;
74799;SDS011;63326;45.088;7.658;2024-01-25T06:13:47;18.40;;;8.95;;
74799;SDS011;63326;45.088;7.658;2024-01-25T06:16:14;16.00;;;10.50;;
74799;SDS011;63326;45.088;7.658;2024-01-25T06:18:41;19.30;;;10.00;;
74799;SDS011;63326;45.088;7.658;2024-01-25T06:21:08;21.50;;;11.02;;
74799;SDS011;63326;45.088;7.658;2024-01-25T06:23:35;17.42;;;9.93;;
74799;SDS011;63326;45.088;7.658;2024-01-25T06:26:02;18.20;;;8.85;;
74799;SDS011;63326;45.088;7.658;2024-01-25T06:28:31;17.73;;;9.65;;
74799;SDS011;63326;45.088;7.658;2024-01-25T06:31:00;14.48;;;10.02;;
74799;SDS011;63326;45.088;7.658;2024-01-25T06:33:27;16.08;;;10.35;;
74799;SDS011;63326;45.088;7.658;2024-01-25T06:35:56;24.02;;;11.18;;
74799;SDS011;63326;45.088;7.658;2024-01-25T06:38:24;16.48;;;11.13;;
74799;SDS011;63326;45.088;7.658;2024-01-25T06:40:50;22.65;;;10.27;;
74799;SDS011;63326;45.088;7.658;2024-01-25T06:43:20;29.35;;;12.73;;
74799;SDS011;63326;45.088;7.658;2024-01-25T06:46:00;17.90;;;10.38;;
74799;SDS011;63326;45.088;7.658;2024-01-25T06:48:27;21.58;;;9.90;;
74799;SDS011;63326;45.088;7.658;2024-01-25T06:50:54;21.48;;;12.80;;
74799;SDS011;63326;45.088;7.658;2024-01-25T06:53:21;13.00;;;8.07;;
74799;SDS011;63326;45.088;7.658;2024-01-25T06:55:47;20.20;;;8.95;;
74799;SDS011;63326;45.088;7.658;2024-01-25T06:58:14;13.40;;;7.88;;
74799;SDS011;63326;45.088;7.658;2024-01-25T07:00:41;12.13;;;9.45;;
74799;SDS011;63326;45.088;7.658;2024-01-25T07:03:09;17.20;;;11.05;;
74799;SDS011;63326;45.088;7.658;2024-01-25T07:05:36;22.17;;;11.68;;
74799;SDS011;63326;45.088;7.658;2024-01-25T07:08:03;22.33;;;11.85;;
74799;SDS011;63326;45.088;7.658;2024-01-25T07:10:30;23.40;;;14.50;;
74799;SDS011;63326;45.088;7.658;2024-01-25T07:12:57;17.33;;;12.93;;
74799;SDS011;63326;45.088;7.658;2024-01-25T07:15:24;24.23;;;12.98;;
74799;SDS011;63326;45.088;7.658;2024-01-25T07:17:51;15.48;;;7.93;;
74799;SDS011;63326;45.088;7.658;2024-01-25T07:20:17;22.20;;;10.43;;
74799;SDS011;63326;45.088;7.658;2024-01-25T07:22:48;18.63;;;11.75;;
74799;SDS011;63326;45.088;7.658;2024-01-25T07:25:15;23.60;;;11.75;;
74799;SDS011;63326;45.088;7.658;2024-01-25T07:27:45;23.00;;;12.65;;
74799;SDS011;63326;45.088;7.658;2024-01-25T07:30:13;27.15;;;13.82;;
74799;SDS011;63326;45.088;7.658;2024-01-25T07:32:40;23.00;;;13.15;;
74799;SDS011;63326;45.088;7.658;2024-01-25T07:35:09;25.05;;;14.57;;
74799;SDS011;63326;45.088;7.658;2024-01-25T07:37:39;22.42;;;15.05;;
74799;SDS011;63326;45.088;7.658;2024-01-25T07:40:09;27.52;;;16.52;;
74799;SDS011;63326;45.088;7.658;2024-01-25T07:42:36;33.35;;;16.98;;
74799;SDS011;63326;45.088;7.658;2024-01-25T07:45:03;34.92;;;20.30;;
74799;SDS011;63326;45.088;7.658;2024-01-25T07:47:30;38.20;;;19.90;;
74799;SDS011;63326;45.088;7.658;2024-01-25T07:49:57;48.17;;;23.35;;
74799;SDS011;63326;45.088;7.658;2024-01-25T07:52:24;34.33;;;21.83;;
74799;SDS011;63326;45.088;7.658;2024-01-25T07:54:55;43.42;;;24.30;;
74799;SDS011;63326;45.088;7.658;2024-01-25T07:57:22;58.38;;;30.40;;
74799;SDS011;63326;45.088;7.658;2024-01-25T07:59:49;60.17;;;32.17;;
74799;SDS011;63326;45.088;7.658;2024-01-25T08:02:16;56.50;;;30.55;;
74799;SDS011;63326;45.088;7.658;2024-01-25T08:04:46;61.97;;;32.83;;
74799;SDS011;63326;45.088;7.658;2024-01-25T08:07:13;47.58;;;26.35;;
74799;SDS011;63326;45.088;7.658;2024-01-25T08:09:40;35.08;;;22.92;;
74799;SDS011;63326;45.088;7.658;2024-01-25T08:12:10;32.15;;;18.05;;
74799;SDS011;63326;45.088;7.658;2024-01-25T08:14:37;28.75;;;18.48;;
74799;SDS011;63326;45.088;7.658;2024-01-25T08:17:04;34.97;;;18.40;;
74799;SDS011;63326;45.088;7.658;2024-01-25T08:19:31;31.55;;;20.55;;
74799;SDS011;63326;45.088;7.658;2024-01-25T08:21:57;31.40;;;17.65;;
74799;SDS011;63326;45.088;7.658;2024-01-25T08:24:24;28.13;;;18.42;;
74799;SDS011;63326;45.088;7.658;2024-01-25T08:26:51;31.95;;;18.55;;
74799;SDS011;63326;45.088;7.658;2024-01-25T08:29:18;30.23;;;18.88;;
74799;SDS011;63326;45.088;7.658;2024-01-25T08:31:45;33.75;;;18.67;;
74799;SDS011;63326;45.088;7.658;2024-01-25T08:34:12;31.05;;;18.58;;
74799;SDS011;63326;45.088;7.658;2024-01-25T08:36:39;29.75;;;19.13;;
74799;SDS011;63326;45.088;7.658;2024-01-25T08:39:06;31.63;;;18.20;;
74799;SDS011;63326;45.088;7.658;2024-01-25T08:41:35;31.13;;;21.42;;
74799;SDS011;63326;45.088;7.658;2024-01-25T08:44:07;30.58;;;19.98;;
74799;SDS011;63326;45.088;7.658;2024-01-25T08:46:33;29.38;;;17.52;;
74799;SDS011;63326;45.088;7.658;2024-01-25T08:49:00;28.05;;;18.00;;
74799;SDS011;63326;45.088;7.658;2024-01-25T08:51:28;34.03;;;19.90;;
74799;SDS011;63326;45.088;7.658;2024-01-25T08:53:55;37.85;;;18.88;;
74799;SDS011;63326;45.088;7.658;2024-01-25T08:56:22;31.23;;;20.38;;
74799;SDS011;63326;45.088;7.658;2024-01-25T08:58:49;31.13;;;18.55;;
74799;SDS011;63326;45.088;7.658;2024-01-25T09:01:16;29.50;;;18.02;;
74799;SDS011;63326;45.088;7.658;2024-01-25T09:03:43;29.40;;;18.58;;
74799;SDS011;63326;45.088;7.658;2024-01-25T09:06:10;28.80;;;18.15;;
74799;SDS011;63326;45.088;7.658;2024-01-25T09:08:37;33.15;;;19.85;;
74799;SDS011;63326;45.088;7.658;2024-01-25T09:11:04;32.97;;;19.70;;
74799;SDS011;63326;45.088;7.658;2024-01-25T09:13:31;31.02;;;19.20;;
74799;SDS011;63326;45.088;7.658;2024-01-25T09:16:10;27.60;;;17.55;;
74799;SDS011;63326;45.088;7.658;2024-01-25T09:18:37;32.35;;;21.15;;
74799;SDS011;63326;45.088;7.658;2024-01-25T09:21:04;26.98;;;21.02;;
74799;SDS011;63326;45.088;7.658;2024-01-25T09:23:31;28.63;;;18.48;;
74799;SDS011;63326;45.088;7.658;2024-01-25T09:25:57;28.70;;;19.42;;
74799;SDS011;63326;45.088;7.658;2024-01-25T09:28:24;29.42;;;17.95;;
74799;SDS011;63326;45.088;7.658;2024-01-25T09:30:51;32.72;;;19.80;;
74799;SDS011;63326;45.088;7.658;2024-01-25T09:33:18;30.15;;;21.67;;
74799;SDS011;63326;45.088;7.658;2024-01-25T09:35:45;28.95;;;21.40;;
74799;SDS011;63326;45.088;7.658;2024-01-25T09:38:14;28.20;;;20.50;;
74799;SDS011;63326;45.088;7.658;2024-01-25T09:40:41;30.92;;;19.95;;
74799;SDS011;63326;45.088;7.658;2024-01-25T09:43:08;32.38;;;20.88;;
74799;SDS011;63326;45.088;7.658;2024-01-25T09:45:35;30.38;;;20.92;;
74799;SDS011;63326;45.088;7.658;2024-01-25T09:48:03;30.05;;;22.33;;
74799;SDS011;63326;45.088;7.658;2024-01-25T09:50:32;33.80;;;21.23;;
74799;SDS011;63326;45.088;7.658;2024-01-25T09:53:00;29.92;;;19.48;;
74799;SDS011;63326;45.088;7.658;2024-01-25T09:55:30;30.92;;;20.83;;
74799;SDS011;63326;45.088;7.658;2024-01-25T09:57:59;31.70;;;21.90;;
74799;SDS011;63326;45.088;7.658;2024-01-25T10:00:28;33.22;;;24.42;;
74799;SDS011;63326;45.088;7.658;2024-01-25T10:02:58;36.42;;;22.35;;
74799;SDS011;63326;45.088;7.658;2024-01-25T10:05:25;30.52;;;20.85;;
74799;SDS011;63326;45.088;7.658;2024-01-25T10:07:52;31.98;;;22.92;;
74799;SDS011;63326;45.088;7.658;2024-01-25T10:10:20;34.15;;;24.48;;
74799;SDS011;63326;45.088;7.658;2024-01-25T10:12:47;33.53;;;20.58;;
74799;SDS011;63326;45.088;7.658;2024-01-25T10:15:14;33.22;;;21.70;;
74799;SDS011;63326;45.088;7.658;2024-01-25T10:17:41;37.95;;;21.52;;
74799;SDS011;63326;45.088;7.658;2024-01-25T10:20:13;30.88;;;22.25;;
74799;SDS011;63326;45.088;7.658;2024-01-25T10:22:41;33.38;;;21.55;;
74799;SDS011;63326;45.088;7.658;2024-01-25T10:25:13;36.20;;;24.08;;
74799;SDS011;63326;45.088;7.658;2024-01-25T10:27:43;28.50;;;20.13;;
74799;SDS011;63326;45.088;7.658;2024-01-25T10:30:11;34.45;;;20.40;;
74799;SDS011;63326;45.088;7.658;2024-01-25T10:32:39;32.55;;;24.20;;
74799;SDS011;63326;45.088;7.658;2024-01-25T10:35:08;33.10;;;21.58;;
74799;SDS011;63326;45.088;7.658;2024-01-25T10:37:36;33.20;;;22.27;;
74799;SDS011;63326;45.088;7.658;2024-01-25T10:40:06;33.35;;;21.50;;
74799;SDS011;63326;45.088;7.658;2024-01-25T10:42:37;39.30;;;23.05;;
74799;SDS011;63326;45.088;7.658;2024-01-25T10:45:04;37.70;;;26.17;;
74799;SDS011;63326;45.088;7.658;2024-01-25T10:47:32;41.85;;;24.23;;
74799;SDS011;63326;45.088;7.658;2024-01-25T10:50:01;37.70;;;25.00;;
74799;SDS011;63326;45.088;7.658;2024-01-25T10:52:31;37.70;;;26.27;;
74799;SDS011;63326;45.088;7.658;2024-01-25T10:54:59;40.85;;;23.98;;
74799;SDS011;63326;45.088;7.658;2024-01-25T10:57:25;39.85;;;25.80;;
74799;SDS011;63326;45.088;7.658;2024-01-25T11:00:01;47.42;;;25.38;;
74799;SDS011;63326;45.088;7.658;2024-01-25T11:02:30;41.67;;;28.05;;
74799;SDS011;63326;45.088;7.658;2024-01-25T11:04:57;42.75;;;27.30;;
74799;SDS011;63326;45.088;7.658;2024-01-25T11:07:26;52.30;;;25.77;;
74799;SDS011;63326;45.088;7.658;2024-01-25T11:09:52;42.00;;;27.52;;
74799;SDS011;63326;45.088;7.658;2024-01-25T11:14:53;41.60;;;25.92;;
74799;SDS011;63326;45.088;7.658;2024-01-25T11:17:22;42.97;;;27.08;;
74799;SDS011;63326;45.088;7.658;2024-01-25T11:19:50;42.10;;;27.33;;
74799;SDS011;63326;45.088;7.658;2024-01-25T11:22:17;42.55;;;24.05;;
74799;SDS011;63326;45.088;7.658;2024-01-25T11:24:44;45.83;;;27.63;;
74799;SDS011;63326;45.088;7.658;2024-01-25T11:27:12;40.60;;;25.15;;
74799;SDS011;63326;45.088;7.658;2024-01-25T11:29:39;38.63;;;22.10;;
74799;SDS011;63326;45.088;7.658;2024-01-25T11:32:09;39.78;;;24.80;;
74799;SDS011;63326;45.088;7.658;2024-01-25T11:34:36;33.42;;;22.48;;
74799;SDS011;63326;45.088;7.658;2024-01-25T11:37:03;36.30;;;23.55;;
74799;SDS011;63326;45.088;7.658;2024-01-25T11:39:30;34.40;;;22.15;;
74799;SDS011;63326;45.088;7.658;2024-01-25T11:41:59;34.28;;;20.48;;
74799;SDS011;63326;45.088;7.658;2024-01-25T11:44:25;37.25;;;20.83;;
74799;SDS011;63326;45.088;7.658;2024-01-25T11:46:55;34.08;;;20.17;;
74799;SDS011;63326;45.088;7.658;2024-01-25T11:49:24;34.90;;;21.88;;
74799;SDS011;63326;45.088;7.658;2024-01-25T11:51:51;40.42;;;23.77;;
74799;SDS011;63326;45.088;7.658;2024-01-25T11:54:18;38.17;;;21.85;;
74799;SDS011;63326;45.088;7.658;2024-01-25T11:56:45;34.45;;;20.23;;
74799;SDS011;63326;45.088;7.658;2024-01-25T11:59:13;33.00;;;19.05;;
74799;SDS011;63326;45.088;7.658;2024-01-25T12:01:39;29.92;;;19.20;;
74799;SDS011;63326;45.088;7.658;2024-01-25T12:04:08;35.33;;;20.00;;
74799;SDS011;63326;45.088;7.658;2024-01-25T12:06:36;31.45;;;18.00;;
74799;SDS011;63326;45.088;7.658;2024-01-25T12:09:10;31.48;;;19.63;;
74799;SDS011;63326;45.088;7.658;2024-01-25T12:11:38;31.38;;;18.63;;
74799;SDS011;63326;45.088;7.658;2024-01-25T12:14:07;29.98;;;17.40;;
74799;SDS011;63326;45.088;7.658;2024-01-25T12:16:36;30.40;;;17.33;;
74799;SDS011;63326;45.088;7.658;2024-01-25T12:19:05;28.13;;;16.52;;
74799;SDS011;63326;45.088;7.658;2024-01-25T12:21:33;26.85;;;14.50;;
74799;SDS011;63326;45.088;7.658;2024-01-25T12:24:01;25.35;;;14.93;;
74799;SDS011;63326;45.088;7.658;2024-01-25T12:29:03;24.95;;;15.32;;
74799;SDS011;63326;45.088;7.658;2024-01-25T12:31:31;23.10;;;15.38;;
74799;SDS011;63326;45.088;7.658;2024-01-25T12:33:58;22.35;;;14.52;;
74799;SDS011;63326;45.088;7.658;2024-01-25T12:36:27;24.85;;;14.23;;
74799;SDS011;63326;45.088;7.658;2024-01-25T12:38:53;26.10;;;17.15;;
74799;SDS011;63326;45.088;7.658;2024-01-25T12:41:21;27.40;;;15.75;;
74799;SDS011;63326;45.088;7.658;2024-01-25T12:43:48;23.48;;;14.93;;
74799;SDS011;63326;45.088;7.658;2024-01-25T12:46:15;23.60;;;15.73;;
74799;SDS011;63326;45.088;7.658;2024-01-25T12:48:53;26.70;;;16.95;;
74799;SDS011;63326;45.088;7.658;2024-01-25T12:51:23;30.45;;;18.40;;
74799;SDS011;63326;45.088;7.658;2024-01-25T12:53:50;25.92;;;18.05;;
74799;SDS011;63326;45.088;7.658;2024-01-25T12:56:20;26.75;;;17.33;;
74799;SDS011;63326;45.088;7.658;2024-01-25T12:58:47;24.85;;;17.40;;
74799;SDS011;63326;45.088;7.658;2024-01-25T13:01:14;26.45;;;16.88;;
74799;SDS011;63326;45.088;7.658;2024-01-25T13:03:43;25.83;;;15.68;;
74799;SDS011;63326;45.088;7.658;2024-01-25T13:06:13;26.90;;;16.17;;
74799;SDS011;63326;45.088;7.658;2024-01-25T13:08:40;25.25;;;15.13;;
74799;SDS011;63326;45.088;7.658;2024-01-25T13:11:07;27.38;;;16.25;;
74799;SDS011;63326;45.088;7.658;2024-01-25T13:13:34;28.27;;;16.38;;
74799;SDS011;63326;45.088;7.658;2024-01-25T13:16:01;26.85;;;18.10;;
74799;SDS011;63326;45.088;7.658;2024-01-25T13:18:28;31.05;;;17.83;;
74799;SDS011;63326;45.088;7.658;2024-01-25T13:20:55;31.60;;;18.65;;
74799;SDS011;63326;45.088;7.658;2024-01-25T13:23:21;29.92;;;18.08;;
74799;SDS011;63326;45.088;7.658;2024-01-25T13:25:48;27.42;;;17.52;;
74799;SDS011;63326;45.088;7.658;2024-01-25T13:40:27;24.35;;;14.15;;
74799;SDS011;63326;45.088;7.658;2024-01-25T13:45:26;20.77;;;13.32;;
74799;SDS011;63326;45.088;7.658;2024-01-25T13:47:54;21.17;;;14.75;;
74799;SDS011;63326;45.088;7.658;2024-01-25T13:50:21;19.02;;;12.82;;
74799;SDS011;63326;45.088;7.658;2024-01-25T13:52:48;20.35;;;14.27;;
74799;SDS011;63326;45.088;7.658;2024-01-25T13:55:14;18.15;;;10.82;;
74799;SDS011;63326;45.088;7.658;2024-01-25T13:57:44;23.80;;;13.40;;
74799;SDS011;63326;45.088;7.658;2024-01-25T14:00:11;20.20;;;12.10;;
74799;SDS011;63326;45.088;7.658;2024-01-25T14:02:40;18.05;;;10.60;;
74799;SDS011;63326;45.088;7.658;2024-01-25T14:05:14;20.67;;;11.48;;
74799;SDS011;63326;45.088;7.658;2024-01-25T14:07:41;18.13;;;10.57;;
74799;SDS011;63326;45.088;7.658;2024-01-25T14:10:09;20.05;;;12.00;;
74799;SDS011;63326;45.088;7.658;2024-01-25T14:12:37;17.60;;;10.77;;
74799;SDS011;63326;45.088;7.658;2024-01-25T14:15:06;17.15;;;10.88;;
74799;SDS011;63326;45.088;7.658;2024-01-25T14:17:36;23.17;;;11.65;;
74799;SDS011;63326;45.088;7.658;2024-01-25T14:20:04;17.40;;;10.63;;
74799;SDS011;63326;45.088;7.658;2024-01-25T14:22:32;16.90;;;9.55;;
74799;SDS011;63326;45.088;7.658;2024-01-25T14:25:02;15.85;;;10.07;;
74799;SDS011;63326;45.088;7.658;2024-01-25T14:27:31;17.88;;;11.65;;
74799;SDS011;63326;45.088;7.658;2024-01-25T14:29:59;18.25;;;9.60;;
74799;SDS011;63326;45.088;7.658;2024-01-25T14:32:27;15.68;;;9.35;;
74799;SDS011;63326;45.088;7.658;2024-01-25T14:34:54;17.60;;;10.15;;
74799;SDS011;63326;45.088;7.658;2024-01-25T14:37:21;18.70;;;11.10;;
74799;SDS011;63326;45.088;7.658;2024-01-25T14:39:47;17.15;;;10.50;;
74799;SDS011;63326;45.088;7.658;2024-01-25T14:42:34;17.25;;;10.73;;
74799;SDS011;63326;45.088;7.658;2024-01-25T14:45:04;15.93;;;9.10;;
74799;SDS011;63326;45.088;7.658;2024-01-25T14:47:34;15.73;;;9.23;;
74799;SDS011;63326;45.088;7.658;2024-01-25T14:50:05;17.55;;;9.73;;
74799;SDS011;63326;45.088;7.658;2024-01-25T14:52:33;18.42;;;9.80;;
74799;SDS011;63326;45.088;7.658;2024-01-25T14:55:03;16.30;;;10.60;;
74799;SDS011;63326;45.088;7.658;2024-01-25T14:57:35;18.48;;;9.02;;
74799;SDS011;63326;45.088;7.658;2024-01-25T15:00:03;19.38;;;9.95;;
74799;SDS011;63326;45.088;7.658;2024-01-25T15:02:33;15.98;;;9.63;;
74799;SDS011;63326;45.088;7.658;2024-01-25T15:05:00;16.23;;;9.55;;
74799;SDS011;63326;45.088;7.658;2024-01-25T15:07:29;17.83;;;10.15;;
74799;SDS011;63326;45.088;7.658;2024-01-25T15:10:00;16.33;;;10.95;;